Date,TemperatureHighF,TemperatureAvgF,TemperatureLowF,DewpointHighF,DewpointAvgF,DewpointLowF,HumidityHigh,HumidityAvg,HumidityLow,PressureMaxIn,PressureMinIn,WindSpeedMaxMPH,WindSpeedAvgMPH,GustSpeedMaxMPH,PrecipitationSumIn
2013-2-1,55,46,38,47,41,29,89,82,65,30.38,30.27,10,0,10,0.00
2013-2-2,49,39,31,44,32,20,89,74,61,30.35,30.28,6,0,6,0.00
2013-2-3,48,44,36,45,37,24,89,79,60,30.36,30.25,4,0,4,0.00
2013-2-4,51,45,40,45,38,28,89,77,59,30.26,29.96,7,0,7,0.00
2013-2-5,52,46,43,47,42,39,89,87,77,30.09,29.95,13,1,13,0.45
2013-2-6,54,47,42,44,41,37,89,82,67,30.13,29.86,19,1,19,0.06
2013-2-7,49,42,37,41,37,29,89,84,66,30.17,29.96,10,1,10,0.07
2013-2-8,45,38,32,39,31,22,89,77,62,30.32,30.17,3,0,4,0.00
2013-2-9,46,41,35,41,36,30,89,84,70,30.33,30.29,5,0,5,0.05
2013-2-10,46,44,41,41,37,32,89,78,67,30.37,30.33,6,0,6,0.00
2013-2-11,49,44,41,42,40,37,89,83,72,30.42,30.34,9,0,9,0.00
2013-2-12,56,49,45,48,45,42,89,85,73,30.51,30.42,9,0,9,0.00
2013-2-13,54,49,46,48,44,42,88,83,68,30.54,30.46,8,0,8,0.00
2013-2-14,57,48,38,46,41,29,89,80,64,30.58,30.51,6,0,6,0.00
2013-2-15,61,48,40,48,41,29,89,80,59,30.51,30.22,6,0,6,0.00
2013-2-16,54,45,40,46,39,29,89,80,61,30.31,30.25,11,1,11,0.00
2013-2-17,50,42,37,39,35,32,89,78,52,30.33,30.12,7,0,7,0.00
2013-2-18,48,41,35,39,35,28,89,80,65,30.12,29.76,10,1,11,0.04
2013-2-19,54,43,37,41,37,31,89,81,55,30.02,29.70,11,1,11,0.01
2013-2-20,50,41,36,41,37,30,89,84,65,30.14,30.02,10,0,10,0.08
2013-2-21,45,42,36,41,38,29,89,86,75,30.24,30.13,12,1,12,0.05
2013-2-22,47,44,38,44,40,34,89,86,75,30.21,29.94,20,2,20,0.38
2013-2-23,50,41,36,40,36,32,89,82,58,30.48,30.12,10,1,10,0.04
2013-2-24,53,44,36,38,35,33,89,73,47,30.47,30.09,12,1,12,0.00
2013-2-25,51,43,35,41,38,31,89,81,58,30.42,30.06,17,1,17,0.20
2013-2-26,52,42,34,39,35,29,89,76,48,30.42,30.27,8,0,8,0.00
2013-2-27,53,48,43,45,41,38,88,78,64,30.33,30.24,11,1,11,0.00
2013-2-28,57,53,48,53,49,44,88,87,83,30.47,30.22,12,1,12,0.02